This is the latest recevied weather packets stored in our database for station/object WX5RP. If no packets are shown the sender has not sent any weather packets the latest 10 day(s).
| Time | Temp. | Humidity | Pressure | Rain* | Wind** | Luminosity | Snow |
|---|---|---|---|---|---|---|---|
| 1787565016 | 6.67° C | 71% | 1020.5 hPa | 0 mm | - | 0 W/m² | - |
| 1787564416 | 7.22° C | 71% | 1020.5 hPa | 0 mm | - | 0 W/m² | - |
| 1787563816 | 7.78° C | 69% | 1020.8 hPa | 0 mm | - | 0 W/m² | - |
| 1787563216 | 8.89° C | 62% | 1020.3 hPa | 0 mm | - | 0 W/m² | - |
| 1787562616 | 9.44° C | 57% | 1021.1 hPa | 0 mm | - | 0 W/m² | - |
| 1787562015 | 10° C | 54% | 1021.1 hPa | 0 mm | - | 0 W/m² | - |
| 1787561416 | 9.44° C | 56% | 1020.9 hPa | 0 mm | - | 0 W/m² | - |
| 1787560815 | 10° C | 55% | 1021.4 hPa | 0 mm | - | 0 W/m² | - |
| 1787560215 | 8.89° C | 65% | 1020.9 hPa | 0 mm | - | 0 W/m² | - |
| 1787559616 | 8.33° C | 70% | 1021 hPa | 0 mm | - | 0 W/m² | - |
| 1787559015 | 8.33° C | 71% | 1021.7 hPa | 0 mm | - | 0 W/m² | - |
| 1787558416 | 8.33° C | 68% | 1021.3 hPa | 0 mm | - | 0 W/m² | - |
| 1787557816 | 8.89° C | 71% | 1021 hPa | 0 mm | - | 0 W/m² | - |
| 1787557216 | 8.89° C | 70% | 1020.6 hPa | 0 mm | - | 0 W/m² | - |
| 1787556615 | 10° C | 65% | 1020.9 hPa | 0 mm | - | 0 W/m² | - |
| 1787556015 | 11.67° C | 57% | 1020.7 hPa | 0 mm | - | 0 W/m² | - |
| 1787555415 | 12.78° C | 48% | 1021.1 hPa | 0 mm | - | 0 W/m² | - |
| 1787554816 | 13.89° C | 48% | 1021.1 hPa | 0 mm | - | 0 W/m² | - |
| 1787554217 | 15° C | 45% | 1020.7 hPa | 0 mm | - | 0 W/m² | - |
| 1787553617 | 15° C | 38% | 1020.7 hPa | 0 mm | - | 0 W/m² | - |
| 1787553017 | 15° C | 39% | 1020.4 hPa | 0 mm | - | 0 W/m² | - |
| 1787552417 | 13.89° C | 41% | 1020.7 hPa | 0 mm | - | 0 W/m² | - |
| 1787551817 | 12.78° C | 53% | 1020.8 hPa | 0 mm | - | 0 W/m² | - |
| 1787551220 | 15° C | 45% | 1021.1 hPa | 0 mm | - | 0 W/m² | - |
| 1787550617 | 16.11° C | 35% | 1020.6 hPa | 0 mm | - | 0 W/m² | - |
* Rain latest hour (hover to see other rain measurements)
** Current wind speed in m/s (hover to see current wind gust speed)